sensor_id;sensor_type;location;lat;lon;timestamp;pressure;altitude;pressure_sealevel;temperature;humidity
66668;BME280;57205;51.438;-2.006;2023-04-24T00:00:15;100038.41;;;6.24;100.00
66668;BME280;57205;51.438;-2.006;2023-04-24T00:02:41;100046.91;;;6.26;100.00
66668;BME280;57205;51.438;-2.006;2023-04-24T00:05:12;100051.19;;;6.27;100.00
66668;BME280;57205;51.438;-2.006;2023-04-24T00:07:39;100043.72;;;6.24;100.00
66668;BME280;57205;51.438;-2.006;2023-04-24T00:10:05;100049.25;;;6.23;100.00
66668;BME280;57205;51.438;-2.006;2023-04-24T00:12:31;100052.16;;;6.21;100.00
66668;BME280;57205;51.438;-2.006;2023-04-24T00:14:56;100054.03;;;6.21;100.00
66668;BME280;57205;51.438;-2.006;2023-04-24T00:17:22;100063.88;;;6.20;100.00
66668;BME280;57205;51.438;-2.006;2023-04-24T00:19:48;100066.78;;;6.19;100.00
66668;BME280;57205;51.438;-2.006;2023-04-24T00:22:13;100065.41;;;6.16;100.00
66668;BME280;57205;51.438;-2.006;2023-04-24T00:24:40;100060.56;;;6.13;100.00
66668;BME280;57205;51.438;-2.006;2023-04-24T00:27:05;100062.94;;;6.10;100.00
66668;BME280;57205;51.438;-2.006;2023-04-24T00:29:31;100061.59;;;6.07;100.00
66668;BME280;57205;51.438;-2.006;2023-04-24T00:31:56;100061.03;;;6.05;100.00
66668;BME280;57205;51.438;-2.006;2023-04-24T00:34:22;100067.31;;;5.99;100.00
66668;BME280;57205;51.438;-2.006;2023-04-24T00:36:47;100070.72;;;5.94;100.00
66668;BME280;57205;51.438;-2.006;2023-04-24T00:39:15;100065.34;;;5.89;100.00
66668;BME280;57205;51.438;-2.006;2023-04-24T00:41:41;100069.78;;;5.84;100.00
66668;BME280;57205;51.438;-2.006;2023-04-24T00:44:07;100072.66;;;5.82;100.00
66668;BME280;57205;51.438;-2.006;2023-04-24T00:46:32;100078.06;;;5.87;100.00
66668;BME280;57205;51.438;-2.006;2023-04-24T00:48:59;100073.00;;;5.86;100.00
66668;BME280;57205;51.438;-2.006;2023-04-24T00:51:24;100073.50;;;5.83;100.00
66668;BME280;57205;51.438;-2.006;2023-04-24T00:53:50;100078.81;;;5.83;100.00
66668;BME280;57205;51.438;-2.006;2023-04-24T00:56:16;100080.06;;;5.80;100.00
66668;BME280;57205;51.438;-2.006;2023-04-24T00:58:42;100086.66;;;5.78;100.00
66668;BME280;57205;51.438;-2.006;2023-04-24T01:01:09;100080.56;;;5.77;100.00
66668;BME280;57205;51.438;-2.006;2023-04-24T01:03:35;100085.06;;;5.77;100.00
66668;BME280;57205;51.438;-2.006;2023-04-24T01:06:03;100073.31;;;5.73;100.00
66668;BME280;57205;51.438;-2.006;2023-04-24T01:08:29;100080.25;;;5.74;100.00
66668;BME280;57205;51.438;-2.006;2023-04-24T01:10:56;100087.66;;;5.72;100.00
66668;BME280;57205;51.438;-2.006;2023-04-24T01:13:22;100085.22;;;5.70;100.00
66668;BME280;57205;51.438;-2.006;2023-04-24T01:15:48;100088.13;;;5.69;100.00
66668;BME280;57205;51.438;-2.006;2023-04-24T01:18:14;100089.19;;;5.68;100.00
66668;BME280;57205;51.438;-2.006;2023-04-24T01:20:41;100091.84;;;5.68;100.00
66668;BME280;57205;51.438;-2.006;2023-04-24T01:23:08;100090.00;;;5.68;100.00
66668;BME280;57205;51.438;-2.006;2023-04-24T01:25:34;100090.78;;;5.69;100.00
66668;BME280;57205;51.438;-2.006;2023-04-24T01:28:00;100098.19;;;5.67;100.00
66668;BME280;57205;51.438;-2.006;2023-04-24T01:30:26;100096.34;;;5.67;100.00
66668;BME280;57205;51.438;-2.006;2023-04-24T01:32:52;100091.53;;;5.64;100.00
66668;BME280;57205;51.438;-2.006;2023-04-24T01:35:18;100094.91;;;5.60;100.00
66668;BME280;57205;51.438;-2.006;2023-04-24T01:37:45;100098.69;;;5.64;100.00
66668;BME280;57205;51.438;-2.006;2023-04-24T01:40:10;100097.88;;;5.63;100.00
66668;BME280;57205;51.438;-2.006;2023-04-24T01:42:36;100091.53;;;5.64;100.00
66668;BME280;57205;51.438;-2.006;2023-04-24T01:45:02;100100.53;;;5.63;100.00
66668;BME280;57205;51.438;-2.006;2023-04-24T01:47:29;100098.13;;;5.62;100.00
66668;BME280;57205;51.438;-2.006;2023-04-24T01:49:55;100106.91;;;5.62;100.00
66668;BME280;57205;51.438;-2.006;2023-04-24T01:52:21;100107.47;;;5.64;100.00
66668;BME280;57205;51.438;-2.006;2023-04-24T01:54:46;100106.72;;;5.69;100.00
66668;BME280;57205;51.438;-2.006;2023-04-24T01:57:13;100108.09;;;5.71;100.00
66668;BME280;57205;51.438;-2.006;2023-04-24T01:59:39;100106.06;;;5.78;100.00
66668;BME280;57205;51.438;-2.006;2023-04-24T02:02:04;100110.97;;;5.86;100.00
66668;BME280;57205;51.438;-2.006;2023-04-24T02:04:30;100112.09;;;5.90;100.00
66668;BME280;57205;51.438;-2.006;2023-04-24T02:06:55;100114.00;;;5.95;100.00
66668;BME280;57205;51.438;-2.006;2023-04-24T02:09:21;100117.78;;;5.99;100.00
66668;BME280;57205;51.438;-2.006;2023-04-24T02:11:46;100114.16;;;6.05;100.00
66668;BME280;57205;51.438;-2.006;2023-04-24T02:14:12;100113.88;;;6.07;100.00
66668;BME280;57205;51.438;-2.006;2023-04-24T02:16:37;100113.63;;;6.08;100.00
66668;BME280;57205;51.438;-2.006;2023-04-24T02:19:03;100112.59;;;6.09;100.00
66668;BME280;57205;51.438;-2.006;2023-04-24T02:21:28;100112.03;;;6.07;100.00
66668;BME280;57205;51.438;-2.006;2023-04-24T02:23:55;100117.34;;;6.07;100.00
66668;BME280;57205;51.438;-2.006;2023-04-24T02:26:21;100120.56;;;6.09;100.00
66668;BME280;57205;51.438;-2.006;2023-04-24T02:28:46;100121.34;;;6.10;100.00
66668;BME280;57205;51.438;-2.006;2023-04-24T02:31:12;100120.88;;;6.13;100.00
66668;BME280;57205;51.438;-2.006;2023-04-24T02:33:37;100126.19;;;6.13;100.00
66668;BME280;57205;51.438;-2.006;2023-04-24T02:36:03;100127.31;;;6.17;100.00
66668;BME280;57205;51.438;-2.006;2023-04-24T02:38:29;100126.25;;;6.18;100.00
66668;BME280;57205;51.438;-2.006;2023-04-24T02:40:55;100137.69;;;6.18;100.00
66668;BME280;57205;51.438;-2.006;2023-04-24T02:43:20;100135.19;;;6.12;100.00
66668;BME280;57205;51.438;-2.006;2023-04-24T02:45:46;100143.41;;;6.10;100.00
66668;BME280;57205;51.438;-2.006;2023-04-24T02:48:11;100144.94;;;6.06;100.00
66668;BME280;57205;51.438;-2.006;2023-04-24T02:50:37;100147.03;;;6.04;100.00
66668;BME280;57205;51.438;-2.006;2023-04-24T02:53:02;100160.00;;;6.01;100.00
66668;BME280;57205;51.438;-2.006;2023-04-24T02:55:28;100161.06;;;6.00;100.00
66668;BME280;57205;51.438;-2.006;2023-04-24T02:57:53;100156.56;;;6.00;100.00
66668;BME280;57205;51.438;-2.006;2023-04-24T03:00:19;100166.13;;;6.01;100.00
66668;BME280;57205;51.438;-2.006;2023-04-24T03:02:45;100161.13;;;6.05;100.00
66668;BME280;57205;51.438;-2.006;2023-04-24T03:05:10;100173.59;;;6.04;100.00
66668;BME280;57205;51.438;-2.006;2023-04-24T03:07:37;100174.16;;;6.06;100.00
66668;BME280;57205;51.438;-2.006;2023-04-24T03:10:03;100183.19;;;6.05;100.00
66668;BME280;57205;51.438;-2.006;2023-04-24T03:12:30;100176.81;;;6.06;100.00
66668;BME280;57205;51.438;-2.006;2023-04-24T03:14:55;100171.50;;;6.06;100.00
66668;BME280;57205;51.438;-2.006;2023-04-24T03:17:20;100176.81;;;6.06;100.00
66668;BME280;57205;51.438;-2.006;2023-04-24T03:19:46;100175.78;;;6.07;100.00
66668;BME280;57205;51.438;-2.006;2023-04-24T03:22:11;100175.47;;;6.04;100.00
66668;BME280;57205;51.438;-2.006;2023-04-24T03:24:37;100176.19;;;5.99;100.00
66668;BME280;57205;51.438;-2.006;2023-04-24T03:27:02;100175.00;;;5.90;100.00
66668;BME280;57205;51.438;-2.006;2023-04-24T03:29:28;100170.66;;;5.84;100.00
66668;BME280;57205;51.438;-2.006;2023-04-24T03:31:53;100179.56;;;5.78;100.00
66668;BME280;57205;51.438;-2.006;2023-04-24T03:34:19;100179.50;;;5.73;100.00
66668;BME280;57205;51.438;-2.006;2023-04-24T03:36:44;100182.91;;;5.68;100.00
66668;BME280;57205;51.438;-2.006;2023-04-24T03:39:12;100185.44;;;5.63;100.00
66668;BME280;57205;51.438;-2.006;2023-04-24T03:41:38;100178.25;;;5.59;100.00
66668;BME280;57205;51.438;-2.006;2023-04-24T03:44:03;100173.97;;;5.58;100.00
66668;BME280;57205;51.438;-2.006;2023-04-24T03:46:29;100168.59;;;5.53;100.00
66668;BME280;57205;51.438;-2.006;2023-04-24T03:48:54;100170.59;;;5.46;100.00
66668;BME280;57205;51.438;-2.006;2023-04-24T03:51:20;100168.91;;;5.40;100.00
66668;BME280;57205;51.438;-2.006;2023-04-24T03:53:46;100176.22;;;5.33;100.00
66668;BME280;57205;51.438;-2.006;2023-04-24T03:56:11;100180.16;;;5.30;100.00
66668;BME280;57205;51.438;-2.006;2023-04-24T03:58:37;100185.13;;;5.27;100.00
66668;BME280;57205;51.438;-2.006;2023-04-24T04:01:02;100185.63;;;5.24;100.00
66668;BME280;57205;51.438;-2.006;2023-04-24T04:03:27;100187.59;;;5.17;100.00
66668;BME280;57205;51.438;-2.006;2023-04-24T04:05:53;100179.56;;;5.12;100.00
66668;BME280;57205;51.438;-2.006;2023-04-24T04:08:19;100181.91;;;5.08;100.00
66668;BME280;57205;51.438;-2.006;2023-04-24T04:10:45;100181.00;;;5.03;100.00
66668;BME280;57205;51.438;-2.006;2023-04-24T04:13:10;100187.81;;;4.98;100.00
66668;BME280;57205;51.438;-2.006;2023-04-24T04:15:36;100180.34;;;4.95;100.00
66668;BME280;57205;51.438;-2.006;2023-04-24T04:18:01;100187.97;;;4.92;100.00
66668;BME280;57205;51.438;-2.006;2023-04-24T04:20:27;100187.66;;;4.88;100.00
66668;BME280;57205;51.438;-2.006;2023-04-24T04:22:52;100182.25;;;4.83;100.00
66668;BME280;57205;51.438;-2.006;2023-04-24T04:25:17;100185.84;;;4.77;100.00
66668;BME280;57205;51.438;-2.006;2023-04-24T04:27:45;100183.41;;;4.76;100.00
66668;BME280;57205;51.438;-2.006;2023-04-24T04:30:13;100186.41;;;4.79;100.00
66668;BME280;57205;51.438;-2.006;2023-04-24T04:32:38;100191.16;;;4.77;100.00
66668;BME280;57205;51.438;-2.006;2023-04-24T04:35:04;100194.50;;;4.73;100.00
66668;BME280;57205;51.438;-2.006;2023-04-24T04:37:30;100190.72;;;4.69;100.00
66668;BME280;57205;51.438;-2.006;2023-04-24T04:39:59;100194.09;;;4.64;100.00
66668;BME280;57205;51.438;-2.006;2023-04-24T04:42:25;100186.81;;;4.60;100.00
66668;BME280;57205;51.438;-2.006;2023-04-24T04:44:52;100194.44;;;4.56;100.00
66668;BME280;57205;51.438;-2.006;2023-04-24T04:47:18;100194.94;;;4.53;100.00
66668;BME280;57205;51.438;-2.006;2023-04-24T04:49:46;100200.91;;;4.49;100.00
66668;BME280;57205;51.438;-2.006;2023-04-24T04:52:13;100201.59;;;4.44;100.00
66668;BME280;57205;51.438;-2.006;2023-04-24T04:54:38;100206.91;;;4.44;100.00
66668;BME280;57205;51.438;-2.006;2023-04-24T04:57:04;100204.25;;;4.44;100.00
66668;BME280;57205;51.438;-2.006;2023-04-24T04:59:29;100204.81;;;4.46;100.00
66668;BME280;57205;51.438;-2.006;2023-04-24T05:01:54;100205.88;;;4.45;100.00
66668;BME280;57205;51.438;-2.006;2023-04-24T05:04:20;100205.31;;;4.43;100.00
66668;BME280;57205;51.438;-2.006;2023-04-24T05:06:45;100200.00;;;4.43;100.00
66668;BME280;57205;51.438;-2.006;2023-04-24T05:09:12;100208.53;;;4.45;100.00
66668;BME280;57205;51.438;-2.006;2023-04-24T05:11:37;100216.91;;;4.42;100.00
66668;BME280;57205;51.438;-2.006;2023-04-24T05:14:03;100210.59;;;4.43;100.00
66668;BME280;57205;51.438;-2.006;2023-04-24T05:16:28;100217.38;;;4.51;100.00
66668;BME280;57205;51.438;-2.006;2023-04-24T05:18:54;100218.19;;;4.51;100.00
66668;BME280;57205;51.438;-2.006;2023-04-24T05:21:20;100217.38;;;4.51;100.00
66668;BME280;57205;51.438;-2.006;2023-04-24T05:23:45;100209.78;;;4.54;100.00
66668;BME280;57205;51.438;-2.006;2023-04-24T05:26:10;100222.09;;;4.60;100.00
66668;BME280;57205;51.438;-2.006;2023-04-24T05:28:36;100218.63;;;4.60;100.00
66668;BME280;57205;51.438;-2.006;2023-04-24T05:31:02;100223.56;;;4.68;100.00
66668;BME280;57205;51.438;-2.006;2023-04-24T05:33:28;100227.28;;;4.83;100.00
66668;BME280;57205;51.438;-2.006;2023-04-24T05:35:54;100236.06;;;5.12;100.00
66668;BME280;57205;51.438;-2.006;2023-04-24T05:38:19;100242.72;;;5.59;100.00
66668;BME280;57205;51.438;-2.006;2023-04-24T05:40:47;100245.13;;;6.27;100.00
66668;BME280;57205;51.438;-2.006;2023-04-24T05:43:13;100242.16;;;6.88;100.00
66668;BME280;57205;51.438;-2.006;2023-04-24T05:45:39;100237.53;;;7.59;100.00
66668;BME280;57205;51.438;-2.006;2023-04-24T05:48:04;100227.94;;;8.26;100.00
66668;BME280;57205;51.438;-2.006;2023-04-24T05:50:30;100212.72;;;8.78;100.00
66668;BME280;57205;51.438;-2.006;2023-04-24T05:52:56;100214.97;;;9.42;100.00
66668;BME280;57205;51.438;-2.006;2023-04-24T05:55:26;100211.19;;;10.08;100.00
66668;BME280;57205;51.438;-2.006;2023-04-24T05:57:52;100214.06;;;10.37;100.00
66668;BME280;57205;51.438;-2.006;2023-04-24T06:00:17;100221.06;;;10.28;100.00
66668;BME280;57205;51.438;-2.006;2023-04-24T06:02:45;100220.84;;;9.99;100.00
66668;BME280;57205;51.438;-2.006;2023-04-24T06:05:10;100225.38;;;10.14;100.00
66668;BME280;57205;51.438;-2.006;2023-04-24T06:07:36;100230.88;;;10.52;100.00
66668;BME280;57205;51.438;-2.006;2023-04-24T06:10:01;100230.25;;;10.80;100.00
66668;BME280;57205;51.438;-2.006;2023-04-24T06:12:27;100235.06;;;11.22;100.00
66668;BME280;57205;51.438;-2.006;2023-04-24T06:14:53;100234.81;;;11.67;100.00
66668;BME280;57205;51.438;-2.006;2023-04-24T06:17:19;100234.28;;;11.60;100.00
66668;BME280;57205;51.438;-2.006;2023-04-24T06:19:45;100234.94;;;12.10;100.00
66668;BME280;57205;51.438;-2.006;2023-04-24T06:22:10;100230.03;;;12.45;96.41
66668;BME280;57205;51.438;-2.006;2023-04-24T06:24:35;100236.91;;;12.99;95.11
66668;BME280;57205;51.438;-2.006;2023-04-24T06:27:01;100226.00;;;13.64;90.80
66668;BME280;57205;51.438;-2.006;2023-04-24T06:29:27;100229.13;;;14.17;86.16
66668;BME280;57205;51.438;-2.006;2023-04-24T06:31:53;100232.06;;;14.61;82.35
66668;BME280;57205;51.438;-2.006;2023-04-24T06:34:18;100236.59;;;15.02;78.49
66668;BME280;57205;51.438;-2.006;2023-04-24T06:36:43;100239.50;;;15.54;76.99
66668;BME280;57205;51.438;-2.006;2023-04-24T06:39:09;100239.03;;;16.44;70.25
66668;BME280;57205;51.438;-2.006;2023-04-24T06:41:35;100243.94;;;16.65;67.88
66668;BME280;57205;51.438;-2.006;2023-04-24T06:44:00;100237.00;;;16.89;65.64
66668;BME280;57205;51.438;-2.006;2023-04-24T06:46:26;100230.81;;;17.06;65.87
66668;BME280;57205;51.438;-2.006;2023-04-24T06:48:53;100232.13;;;17.25;63.79
66668;BME280;57205;51.438;-2.006;2023-04-24T06:51:26;100222.22;;;17.89;61.73
66668;BME280;57205;51.438;-2.006;2023-04-24T06:53:53;100233.63;;;18.12;60.90
66668;BME280;57205;51.438;-2.006;2023-04-24T06:56:19;100233.50;;;18.55;57.95
66668;BME280;57205;51.438;-2.006;2023-04-24T06:58:45;100234.22;;;18.72;57.21
66668;BME280;57205;51.438;-2.006;2023-04-24T07:01:11;100238.91;;;18.92;55.75
66668;BME280;57205;51.438;-2.006;2023-04-24T07:03:36;100248.16;;;19.41;54.16
66668;BME280;57205;51.438;-2.006;2023-04-24T07:06:02;100250.31;;;19.68;53.00
66668;BME280;57205;51.438;-2.006;2023-04-24T07:08:29;100249.28;;;19.93;51.73
66668;BME280;57205;51.438;-2.006;2023-04-24T07:10:55;100249.31;;;20.05;51.03
66668;BME280;57205;51.438;-2.006;2023-04-24T07:13:22;100242.97;;;20.01;50.01
66668;BME280;57205;51.438;-2.006;2023-04-24T07:15:47;100243.19;;;19.43;50.52
66668;BME280;57205;51.438;-2.006;2023-04-24T07:18:15;100243.06;;;19.39;50.77
66668;BME280;57205;51.438;-2.006;2023-04-24T07:20:41;100241.72;;;19.04;51.43
66668;BME280;57205;51.438;-2.006;2023-04-24T07:23:06;100235.81;;;19.02;51.05
66668;BME280;57205;51.438;-2.006;2023-04-24T07:25:32;100219.50;;;18.82;51.37
66668;BME280;57205;51.438;-2.006;2023-04-24T07:27:58;100228.84;;;18.64;52.17
66668;BME280;57205;51.438;-2.006;2023-04-24T07:30:24;100232.06;;;18.02;52.97
66668;BME280;57205;51.438;-2.006;2023-04-24T07:32:49;100234.69;;;17.65;54.18
66668;BME280;57205;51.438;-2.006;2023-04-24T07:35:15;100241.34;;;17.07;55.84
66668;BME280;57205;51.438;-2.006;2023-04-24T07:37:41;100240.44;;;16.64;57.97
66668;BME280;57205;51.438;-2.006;2023-04-24T07:40:13;100234.22;;;15.36;61.91
66668;BME280;57205;51.438;-2.006;2023-04-24T07:42:39;100233.38;;;15.27;64.20
66668;BME280;57205;51.438;-2.006;2023-04-24T07:45:05;100224.63;;;15.08;64.70
66668;BME280;57205;51.438;-2.006;2023-04-24T07:47:31;100220.41;;;14.52;69.24
66668;BME280;57205;51.438;-2.006;2023-04-24T07:49:58;100216.75;;;14.03;72.20
66668;BME280;57205;51.438;-2.006;2023-04-24T07:52:23;100216.00;;;13.84;77.95
66668;BME280;57205;51.438;-2.006;2023-04-24T07:54:49;100215.59;;;13.90;77.71
66668;BME280;57205;51.438;-2.006;2023-04-24T07:57:15;100217.38;;;13.81;78.89
66668;BME280;57205;51.438;-2.006;2023-04-24T07:59:41;100211.09;;;13.72;78.87
66668;BME280;57205;51.438;-2.006;2023-04-24T08:02:06;100210.28;;;13.71;78.98
66668;BME280;57205;51.438;-2.006;2023-04-24T08:04:32;100210.50;;;13.43;80.75
66668;BME280;57205;51.438;-2.006;2023-04-24T08:06:58;100219.41;;;13.38;83.16
66668;BME280;57205;51.438;-2.006;2023-04-24T08:09:23;100216.44;;;13.03;84.46
66668;BME280;57205;51.438;-2.006;2023-04-24T08:11:49;100220.91;;;12.89;89.29
66668;BME280;57205;51.438;-2.006;2023-04-24T08:14:14;100231.97;;;12.82;89.03
66668;BME280;57205;51.438;-2.006;2023-04-24T08:16:40;100234.88;;;12.67;90.37
66668;BME280;57205;51.438;-2.006;2023-04-24T08:19:06;100239.94;;;12.45;93.15
66668;BME280;57205;51.438;-2.006;2023-04-24T08:21:32;100240.75;;;12.22;94.22
66668;BME280;57205;51.438;-2.006;2023-04-24T08:23:57;100239.78;;;12.13;95.08
66668;BME280;57205;51.438;-2.006;2023-04-24T08:26:23;100251.66;;;12.02;96.75
66668;BME280;57205;51.438;-2.006;2023-04-24T08:28:49;100253.88;;;11.95;100.00
66668;BME280;57205;51.438;-2.006;2023-04-24T08:31:15;100260.88;;;11.91;100.00
66668;BME280;57205;51.438;-2.006;2023-04-24T08:33:40;100253.38;;;11.88;100.00
66668;BME280;57205;51.438;-2.006;2023-04-24T08:36:06;100255.00;;;11.89;100.00
66668;BME280;57205;51.438;-2.006;2023-04-24T08:38:33;100257.41;;;11.90;100.00
66668;BME280;57205;51.438;-2.006;2023-04-24T08:41:00;100255.84;;;11.84;100.00
66668;BME280;57205;51.438;-2.006;2023-04-24T08:43:27;100256.94;;;11.78;100.00
66668;BME280;57205;51.438;-2.006;2023-04-24T08:45:55;100259.16;;;11.71;100.00
66668;BME280;57205;51.438;-2.006;2023-04-24T08:48:22;100257.56;;;11.70;100.00
66668;BME280;57205;51.438;-2.006;2023-04-24T08:50:50;100251.69;;;11.68;100.00
66668;BME280;57205;51.438;-2.006;2023-04-24T08:53:17;100262.72;;;11.56;100.00
66668;BME280;57205;51.438;-2.006;2023-04-24T08:55:46;100252.00;;;11.56;100.00
66668;BME280;57205;51.438;-2.006;2023-04-24T08:58:13;100260.59;;;11.92;100.00
66668;BME280;57205;51.438;-2.006;2023-04-24T09:00:39;100254.22;;;12.64;100.00
66668;BME280;57205;51.438;-2.006;2023-04-24T09:03:05;100245.25;;;13.16;97.47
66668;BME280;57205;51.438;-2.006;2023-04-24T09:05:32;100246.59;;;13.37;91.76
66668;BME280;57205;51.438;-2.006;2023-04-24T09:07:59;100235.19;;;13.77;89.28
66668;BME280;57205;51.438;-2.006;2023-04-24T09:10:25;100242.28;;;14.19;87.84
66668;BME280;57205;51.438;-2.006;2023-04-24T09:12:51;100248.41;;;14.65;82.99
66668;BME280;57205;51.438;-2.006;2023-04-24T09:15:18;100237.16;;;15.26;81.23
66668;BME280;57205;51.438;-2.006;2023-04-24T09:17:46;100249.03;;;16.35;74.41
66668;BME280;57205;51.438;-2.006;2023-04-24T09:20:11;100244.22;;;17.11;66.99
66668;BME280;57205;51.438;-2.006;2023-04-24T09:22:37;100243.09;;;17.80;61.85
66668;BME280;57205;51.438;-2.006;2023-04-24T09:25:07;100239.50;;;18.98;56.63
66668;BME280;57205;51.438;-2.006;2023-04-24T09:27:34;100244.59;;;19.20;54.99
66668;BME280;57205;51.438;-2.006;2023-04-24T09:30:00;100246.81;;;19.26;55.31
66668;BME280;57205;51.438;-2.006;2023-04-24T09:32:26;100250.97;;;19.24;53.80
66668;BME280;57205;51.438;-2.006;2023-04-24T09:37:46;100248.94;;;18.08;56.86
66668;BME280;57205;51.438;-2.006;2023-04-24T09:40:20;100251.13;;;18.31;56.59
66668;BME280;57205;51.438;-2.006;2023-04-24T09:42:55;100250.25;;;18.02;57.12
66668;BME280;57205;51.438;-2.006;2023-04-24T09:45:36;100262.19;;;17.32;58.53
66668;BME280;57205;51.438;-2.006;2023-04-24T09:48:02;100258.44;;;16.86;63.69
66668;BME280;57205;51.438;-2.006;2023-04-24T09:50:30;100263.84;;;16.46;65.48
66668;BME280;57205;51.438;-2.006;2023-04-24T09:53:02;100263.44;;;16.00;69.35
66668;BME280;57205;51.438;-2.006;2023-04-24T09:55:28;100264.94;;;15.13;74.60
66668;BME280;57205;51.438;-2.006;2023-04-24T09:58:00;100261.19;;;14.59;79.25
66668;BME280;57205;51.438;-2.006;2023-04-24T10:00:28;100263.66;;;14.10;84.59
66668;BME280;57205;51.438;-2.006;2023-04-24T10:02:59;100266.69;;;13.77;87.83
66668;BME280;57205;51.438;-2.006;2023-04-24T10:05:36;100269.09;;;13.41;94.76
66668;BME280;57205;51.438;-2.006;2023-04-24T10:08:04;100270.97;;;13.03;100.00
66668;BME280;57205;51.438;-2.006;2023-04-24T10:10:31;100278.84;;;12.95;100.00
66668;BME280;57205;51.438;-2.006;2023-04-24T10:12:57;100283.59;;;12.79;100.00
66668;BME280;57205;51.438;-2.006;2023-04-24T10:15:22;100274.34;;;12.66;100.00
66668;BME280;57205;51.438;-2.006;2023-04-24T10:17:49;100278.75;;;12.57;100.00
66668;BME280;57205;51.438;-2.006;2023-04-24T10:20:25;100273.41;;;12.52;100.00
66668;BME280;57205;51.438;-2.006;2023-04-24T10:22:53;100281.06;;;12.40;100.00
66668;BME280;57205;51.438;-2.006;2023-04-24T10:25:23;100276.03;;;12.34;100.00
66668;BME280;57205;51.438;-2.006;2023-04-24T10:27:51;100282.25;;;12.29;100.00
66668;BME280;57205;51.438;-2.006;2023-04-24T10:30:19;100276.69;;;12.21;100.00
66668;BME280;57205;51.438;-2.006;2023-04-24T10:32:45;100268.38;;;12.22;100.00
66668;BME280;57205;51.438;-2.006;2023-04-24T10:35:15;100261.59;;;12.30;100.00
66668;BME280;57205;51.438;-2.006;2023-04-24T10:37:49;100262.63;;;12.57;100.00
66668;BME280;57205;51.438;-2.006;2023-04-24T10:40:19;100266.47;;;12.94;100.00
66668;BME280;57205;51.438;-2.006;2023-04-24T10:42:52;100258.41;;;13.36;100.00
66668;BME280;57205;51.438;-2.006;2023-04-24T10:45:21;100252.94;;;13.78;100.00
66668;BME280;57205;51.438;-2.006;2023-04-24T10:47:58;100254.13;;;14.18;96.14
66668;BME280;57205;51.438;-2.006;2023-04-24T10:50:27;100249.09;;;14.57;90.74
66668;BME280;57205;51.438;-2.006;2023-04-24T10:52:53;100249.63;;;14.59;88.30
66668;BME280;57205;51.438;-2.006;2023-04-24T10:55:43;100250.81;;;14.94;85.98
66668;BME280;57205;51.438;-2.006;2023-04-24T10:58:09;100247.00;;;14.95;82.26
66668;BME280;57205;51.438;-2.006;2023-04-24T11:00:40;100247.31;;;14.80;83.20
66668;BME280;57205;51.438;-2.006;2023-04-24T11:03:32;100250.00;;;14.66;85.57
66668;BME280;57205;51.438;-2.006;2023-04-24T11:06:08;100249.81;;;14.35;83.53
66668;BME280;57205;51.438;-2.006;2023-04-24T11:08:38;100252.13;;;14.23;84.68
66668;BME280;57205;51.438;-2.006;2023-04-24T11:11:14;100242.84;;;14.02;87.29
66668;BME280;57205;51.438;-2.006;2023-04-24T11:16:28;100248.91;;;13.43;90.03
66668;BME280;57205;51.438;-2.006;2023-04-24T11:19:05;100237.00;;;13.31;88.92
66668;BME280;57205;51.438;-2.006;2023-04-24T11:24:48;100247.09;;;12.78;89.46
66668;BME280;57205;51.438;-2.006;2023-04-24T11:27:20;100247.31;;;12.58;92.09
66668;BME280;57205;51.438;-2.006;2023-04-24T11:29:47;100252.59;;;12.16;100.00
66668;BME280;57205;51.438;-2.006;2023-04-24T11:32:16;100259.69;;;11.73;100.00
66668;BME280;57205;51.438;-2.006;2023-04-24T11:34:50;100264.63;;;11.51;100.00
66668;BME280;57205;51.438;-2.006;2023-04-24T11:37:17;100272.00;;;11.30;100.00
66668;BME280;57205;51.438;-2.006;2023-04-24T11:39:42;100277.00;;;10.93;100.00
66668;BME280;57205;51.438;-2.006;2023-04-24T11:42:14;100289.19;;;10.55;100.00
66668;BME280;57205;51.438;-2.006;2023-04-24T11:44:41;100289.47;;;10.39;100.00
66668;BME280;57205;51.438;-2.006;2023-04-24T11:47:08;100286.03;;;10.08;100.00
66668;BME280;57205;51.438;-2.006;2023-04-24T11:49:36;100297.53;;;9.83;100.00
66668;BME280;57205;51.438;-2.006;2023-04-24T11:52:02;100290.31;;;9.79;100.00
66668;BME280;57205;51.438;-2.006;2023-04-24T11:54:27;100290.56;;;9.77;100.00
66668;BME280;57205;51.438;-2.006;2023-04-24T11:56:53;100285.50;;;9.86;100.00
66668;BME280;57205;51.438;-2.006;2023-04-24T11:59:18;100287.63;;;9.94;100.00
66668;BME280;57205;51.438;-2.006;2023-04-24T12:01:47;100279.63;;;9.94;100.00
66668;BME280;57205;51.438;-2.006;2023-04-24T12:04:14;100284.44;;;9.87;100.00
66668;BME280;57205;51.438;-2.006;2023-04-24T12:06:46;100289.78;;;9.87;100.00
66668;BME280;57205;51.438;-2.006;2023-04-24T12:09:23;100298.59;;;9.88;100.00
66668;BME280;57205;51.438;-2.006;2023-04-24T12:11:56;100287.91;;;9.88;100.00
66668;BME280;57205;51.438;-2.006;2023-04-24T12:14:22;100299.94;;;9.95;100.00
66668;BME280;57205;51.438;-2.006;2023-04-24T12:16:49;100299.13;;;9.95;100.00
66668;BME280;57205;51.438;-2.006;2023-04-24T12:19:22;100291.41;;;10.03;100.00
66668;BME280;57205;51.438;-2.006;2023-04-24T12:22:01;100291.91;;;10.05;100.00
66668;BME280;57205;51.438;-2.006;2023-04-24T12:24:27;100297.00;;;10.07;100.00
66668;BME280;57205;51.438;-2.006;2023-04-24T12:26:52;100305.03;;;10.22;100.00
66668;BME280;57205;51.438;-2.006;2023-04-24T12:29:22;100295.16;;;10.27;100.00
66668;BME280;57205;51.438;-2.006;2023-04-24T12:31:50;100314.66;;;10.33;100.00
66668;BME280;57205;51.438;-2.006;2023-04-24T12:34:23;100311.44;;;10.46;100.00
66668;BME280;57205;51.438;-2.006;2023-04-24T12:36:50;100312.75;;;10.43;100.00
66668;BME280;57205;51.438;-2.006;2023-04-24T12:39:19;100309.25;;;10.48;100.00
66668;BME280;57205;51.438;-2.006;2023-04-24T12:41:57;100318.59;;;10.55;100.00
66668;BME280;57205;51.438;-2.006;2023-04-24T12:44:38;100314.34;;;10.54;100.00